createdAt,value
2018-09-15T00:01:43.071Z,8.83
2018-09-15T00:04:11.442Z,3.20
2018-09-15T00:06:39.826Z,8.33
2018-09-15T00:09:09.006Z,8.10
2018-09-15T00:11:37.398Z,7.23
2018-09-15T00:14:05.768Z,7.80
2018-09-15T00:16:34.181Z,2.90
2018-09-15T00:19:02.563Z,10.83
2018-09-15T00:21:30.967Z,7.57
2018-09-15T00:23:59.362Z,4.93
2018-09-15T00:26:27.777Z,7.33
2018-09-15T00:28:56.160Z,8.20
2018-09-15T00:31:24.531Z,3.03
2018-09-15T00:33:52.919Z,6.83
2018-09-15T00:36:21.310Z,4.27
2018-09-15T00:38:49.713Z,5.80
2018-09-15T00:41:18.090Z,15.57
2018-09-15T00:43:46.483Z,6.53
2018-09-15T00:46:14.849Z,3.90
2018-09-15T00:48:43.244Z,6.47
2018-09-15T00:51:11.626Z,12.93
2018-09-15T00:53:40.012Z,4.23
2018-09-15T00:56:08.379Z,3.03
2018-09-15T00:58:36.762Z,17.47
2018-09-15T01:01:05.123Z,8.60
2018-09-15T01:03:33.519Z,9.33
2018-09-15T01:06:01.881Z,4.60
2018-09-15T01:08:30.450Z,7.67
2018-09-15T01:10:58.805Z,6.00
2018-09-15T01:13:27.198Z,2.53
2018-09-15T01:15:55.557Z,6.00
2018-09-15T01:18:23.941Z,7.23
2018-09-15T01:20:52.298Z,6.63
2018-09-15T01:23:20.734Z,4.83
2018-09-15T01:25:49.106Z,10.00
2018-09-15T01:28:17.494Z,4.50
2018-09-15T01:30:45.853Z,6.30
2018-09-15T01:33:14.230Z,6.70
2018-09-15T01:35:42.599Z,8.70
2018-09-15T01:38:10.981Z,5.97
2018-09-15T01:40:39.334Z,10.57
2018-09-15T01:43:07.731Z,5.83
2018-09-15T01:45:36.137Z,10.47
2018-09-15T01:48:04.534Z,4.40
2018-09-15T01:50:32.908Z,8.57
2018-09-15T01:53:01.290Z,9.90
2018-09-15T01:55:29.655Z,30.23
2018-09-15T01:57:58.037Z,18.17
2018-09-15T02:00:26.401Z,12.67
2018-09-15T02:02:54.787Z,8.47
2018-09-15T02:05:23.150Z,10.80
2018-09-15T02:07:51.539Z,11.23
2018-09-15T02:10:19.898Z,12.90
2018-09-15T02:12:48.282Z,8.90
2018-09-15T02:15:16.642Z,10.03
2018-09-15T02:17:45.022Z,6.70
2018-09-15T02:20:13.374Z,13.90
2018-09-15T02:22:41.826Z,6.93
2018-09-15T02:25:10.193Z,6.50
2018-09-15T02:27:38.553Z,5.53
2018-09-15T02:30:06.946Z,6.93
2018-09-15T02:32:35.301Z,5.13
2018-09-15T02:35:03.686Z,5.97
2018-09-15T02:37:32.058Z,11.40
2018-09-15T02:40:00.442Z,8.40
2018-09-15T02:42:28.802Z,7.80
2018-09-15T02:44:57.192Z,7.50
2018-09-15T02:47:25.555Z,12.10
2018-09-15T02:49:53.987Z,11.30
2018-09-15T02:52:22.348Z,6.67
2018-09-15T02:54:50.770Z,12.30
2018-09-15T02:57:19.130Z,9.67
2018-09-15T02:59:47.506Z,8.13
2018-09-15T03:02:15.894Z,7.50
2018-09-15T03:04:44.282Z,20.43
2018-09-15T03:07:12.664Z,9.47
2018-09-15T03:09:41.058Z,12.20
2018-09-15T03:12:09.430Z,10.10
2018-09-15T03:14:37.815Z,8.60
2018-09-15T03:17:06.500Z,13.37
2018-09-15T03:19:34.902Z,8.70
2018-09-15T03:22:03.275Z,13.27
2018-09-15T03:24:31.681Z,8.43
2018-09-15T03:27:00.052Z,6.97
2018-09-15T03:29:28.445Z,16.47
2018-09-15T03:31:56.815Z,10.77
2018-09-15T03:34:25.216Z,7.57
2018-09-15T03:36:53.623Z,12.70
2018-09-15T03:39:22.005Z,8.27
2018-09-15T03:41:50.425Z,12.10
2018-09-15T03:44:18.781Z,12.70
2018-09-15T03:46:47.155Z,10.67
2018-09-15T03:49:15.550Z,14.60
2018-09-15T03:51:43.915Z,16.60
2018-09-15T03:54:17.398Z,17.90
2018-09-15T03:56:45.862Z,15.47
2018-09-15T03:59:14.577Z,24.10
2018-09-15T04:01:42.955Z,23.13
2018-09-15T04:04:11.362Z,20.97
2018-09-15T04:06:39.725Z,16.80
2018-09-15T04:09:10.138Z,18.63
2018-09-15T04:11:38.590Z,18.37
2018-09-15T04:14:07.301Z,19.47
2018-09-15T04:16:35.758Z,25.07
2018-09-15T04:19:04.147Z,18.20
2018-09-15T04:21:32.531Z,18.20
2018-09-15T04:24:00.946Z,17.30
2018-09-15T04:26:29.319Z,21.13
2018-09-15T04:28:57.749Z,21.60
2018-09-15T04:31:26.275Z,28.43
2018-09-15T04:33:54.654Z,19.50
2018-09-15T04:36:23.041Z,21.70
2018-09-15T04:38:51.409Z,20.63
2018-09-15T04:41:19.794Z,15.00
2018-09-15T04:43:48.338Z,18.53
2018-09-15T04:46:16.730Z,23.93
2018-09-15T04:48:45.098Z,23.90
2018-09-15T04:51:13.486Z,30.93
2018-09-15T04:53:41.850Z,23.43
2018-09-15T04:56:10.239Z,19.40
2018-09-15T04:58:38.608Z,18.83
2018-09-15T05:01:07.034Z,29.63
2018-09-15T05:03:35.410Z,25.00
2018-09-15T05:06:03.805Z,19.60
2018-09-15T05:08:32.347Z,37.40
2018-09-15T05:11:00.955Z,21.03
2018-09-15T05:13:29.370Z,21.00
2018-09-15T05:15:57.776Z,19.00
2018-09-15T05:18:26.142Z,18.53
2018-09-15T05:20:54.535Z,21.80
2018-09-15T05:23:23.882Z,23.70
2018-09-15T05:25:52.315Z,24.47
2018-09-15T05:28:20.682Z,18.83
2018-09-15T05:30:49.084Z,18.90
2018-09-15T05:33:17.490Z,24.70
2018-09-15T05:35:45.886Z,22.17
2018-09-15T05:38:14.291Z,29.40
2018-09-15T05:40:42.842Z,22.97
2018-09-15T05:43:11.298Z,22.77
2018-09-15T05:45:39.692Z,24.10
2018-09-15T05:48:08.062Z,29.27
2018-09-15T05:50:36.449Z,24.40
2018-09-15T05:53:04.810Z,27.97
2018-09-15T05:55:33.210Z,16.87
2018-09-15T05:58:01.581Z,21.47
2018-09-15T06:00:30.032Z,27.03
2018-09-15T06:02:58.369Z,22.50
2018-09-15T06:05:26.770Z,24.47
2018-09-15T06:07:55.150Z,13.00
2018-09-15T06:10:23.542Z,21.90
2018-09-15T06:12:51.910Z,19.77
2018-09-15T06:15:20.318Z,18.50
2018-09-15T06:17:48.686Z,23.60
2018-09-15T06:20:17.076Z,20.10
2018-09-15T06:22:45.465Z,24.67
2018-09-15T06:25:13.878Z,23.10
2018-09-15T06:27:42.258Z,16.70
2018-09-15T06:30:10.629Z,15.73
2018-09-15T06:32:39.023Z,14.93
2018-09-15T06:35:07.389Z,20.10
2018-09-15T06:37:35.788Z,21.13
2018-09-15T06:40:04.166Z,10.57
2018-09-15T06:42:32.553Z,17.10
2018-09-15T06:45:00.913Z,12.90
2018-09-15T06:47:29.302Z,11.50
2018-09-15T06:49:57.688Z,15.00
2018-09-15T06:52:26.074Z,15.63
2018-09-15T06:54:54.437Z,13.90
2018-09-15T06:57:22.827Z,10.80
2018-09-15T06:59:51.198Z,17.63
2018-09-15T07:02:19.591Z,20.03
2018-09-15T07:04:47.966Z,7.60
2018-09-15T07:07:16.390Z,8.27
2018-09-15T07:09:44.758Z,20.63
2018-09-15T07:12:13.149Z,21.80
2018-09-15T07:14:41.506Z,8.17
2018-09-15T07:17:09.898Z,11.03
2018-09-15T07:19:38.304Z,8.30
2018-09-15T07:22:06.749Z,8.27
2018-09-15T07:24:35.138Z,11.67
2018-09-15T07:27:03.519Z,8.97
2018-09-15T07:29:31.886Z,22.73
2018-09-15T07:32:00.311Z,5.20
2018-09-15T07:34:28.665Z,6.77
2018-09-15T07:36:57.048Z,10.33
2018-09-15T07:39:25.430Z,11.27
2018-09-15T07:41:53.850Z,8.47
2018-09-15T07:44:22.397Z,9.73
2018-09-15T07:46:50.786Z,26.37
2018-09-15T07:49:19.166Z,6.33
2018-09-15T07:51:47.631Z,13.90
2018-09-15T07:54:15.988Z,4.30
2018-09-15T07:56:44.386Z,6.13
2018-09-15T07:59:12.815Z,4.30
2018-09-15T08:01:41.198Z,6.77
2018-09-15T08:04:09.573Z,10.40
2018-09-15T08:06:37.961Z,12.90
2018-09-15T08:09:07.053Z,10.70
2018-09-15T08:11:35.728Z,17.67
2018-09-15T08:14:04.102Z,6.00
2018-09-15T08:16:32.502Z,6.80
2018-09-15T08:19:00.863Z,6.10
2018-09-15T08:21:29.245Z,6.50
2018-09-15T08:23:57.653Z,9.87
2018-09-15T08:26:26.052Z,5.57
2018-09-15T08:28:54.955Z,8.87
2018-09-15T08:31:23.313Z,8.00
2018-09-15T08:33:51.706Z,7.53
2018-09-15T08:36:20.071Z,5.67
2018-09-15T08:38:48.453Z,4.63
2018-09-15T08:41:16.864Z,11.10
2018-09-15T08:43:45.223Z,6.20
2018-09-15T08:46:13.582Z,3.50
2018-09-15T08:48:41.965Z,2.87
2018-09-15T08:51:10.329Z,6.70
2018-09-15T08:53:38.714Z,7.13
2018-09-15T08:56:07.150Z,4.80
2018-09-15T08:58:35.543Z,3.93
2018-09-15T09:01:03.911Z,6.30
2018-09-15T09:03:32.299Z,5.80
2018-09-15T09:06:00.670Z,8.10
2018-09-15T09:08:29.062Z,4.40
2018-09-15T09:10:57.426Z,3.00
2018-09-15T09:13:25.837Z,7.60
2018-09-15T09:15:54.210Z,8.83
2018-09-15T09:18:22.590Z,4.20
2018-09-15T09:20:51.142Z,4.47
2018-09-15T09:23:19.554Z,6.77
2018-09-15T09:25:47.918Z,15.63
2018-09-15T09:28:16.293Z,6.40
2018-09-15T09:30:46.045Z,8.30
2018-09-15T09:33:14.440Z,6.80
2018-09-15T09:35:42.809Z,5.13
2018-09-15T09:38:11.199Z,5.20
2018-09-15T09:40:39.569Z,8.10
2018-09-15T09:43:07.969Z,6.20
2018-09-15T09:45:36.327Z,9.40
2018-09-15T09:48:04.767Z,5.50
2018-09-15T09:50:33.105Z,13.93
2018-09-15T09:53:01.481Z,3.03
2018-09-15T09:55:29.846Z,4.00
2018-09-15T09:57:58.227Z,3.50
2018-09-15T10:00:31.923Z,11.03
2018-09-15T10:03:00.319Z,10.53
2018-09-15T10:05:28.681Z,6.63
2018-09-15T10:07:57.062Z,5.90
2018-09-15T10:10:25.421Z,2.50
2018-09-15T10:12:53.806Z,11.00
2018-09-15T10:15:22.189Z,6.17
2018-09-15T10:17:50.578Z,11.83
2018-09-15T10:20:18.941Z,6.60
2018-09-15T10:22:47.350Z,6.00
2018-09-15T10:25:15.770Z,15.20
2018-09-15T10:27:44.170Z,3.67
2018-09-15T10:30:12.619Z,1.80
2018-09-15T10:32:40.978Z,5.40
2018-09-15T10:35:08.409Z,4.50
2018-09-15T10:37:36.778Z,11.23
2018-09-15T10:40:05.396Z,2.70
2018-09-15T10:42:33.938Z,7.40
2018-09-15T10:45:02.318Z,5.23
2018-09-15T10:47:30.682Z,6.10
2018-09-15T10:49:59.078Z,10.70
2018-09-15T10:52:27.464Z,2.30
2018-09-15T10:54:55.858Z,3.90
2018-09-15T10:57:24.223Z,8.60
2018-09-15T10:59:52.611Z,4.37
2018-09-15T11:02:20.987Z,2.40
2018-09-15T11:04:49.374Z,7.83
2018-09-15T11:07:17.733Z,9.80
2018-09-15T11:09:46.123Z,3.77
2018-09-15T11:12:16.287Z,7.80
2018-09-15T11:14:45.129Z,7.53
2018-09-15T11:17:15.067Z,7.20
2018-09-15T11:19:45.110Z,3.53
2018-09-15T11:22:13.495Z,3.80
2018-09-15T11:24:41.923Z,5.27
2018-09-15T11:27:10.302Z,5.47
2018-09-15T11:29:38.688Z,3.60
2018-09-15T11:32:07.078Z,3.73
2018-09-15T11:34:35.467Z,2.13
2018-09-15T11:37:03.830Z,7.80
2018-09-15T11:39:32.205Z,4.97
2018-09-15T11:42:00.566Z,4.50
2018-09-15T11:44:28.955Z,2.17
2018-09-15T11:46:57.325Z,2.50
2018-09-15T11:49:25.714Z,1.10
2018-09-15T11:51:54.080Z,4.83
2018-09-15T11:54:22.482Z,3.43
2018-09-15T11:56:50.862Z,15.73
2018-09-15T11:59:19.241Z,1.53
2018-09-15T12:01:47.607Z,4.00
2018-09-15T12:04:15.994Z,4.93
2018-09-15T12:06:44.361Z,10.33
2018-09-15T12:09:12.770Z,2.97
2018-09-15T12:11:41.139Z,6.10
2018-09-15T12:14:09.562Z,7.33
2018-09-15T12:16:38.054Z,13.10
2018-09-15T12:19:06.442Z,3.87
2018-09-15T12:21:34.825Z,3.17
2018-09-15T12:24:03.238Z,1.80
2018-09-15T12:26:31.642Z,3.63
2018-09-15T12:29:00.034Z,5.00
2018-09-15T12:31:28.397Z,1.53
2018-09-15T12:33:56.812Z,3.33
2018-09-15T12:36:25.198Z,1.43
2018-09-15T12:38:53.558Z,2.33
2018-09-15T12:41:21.944Z,5.90
2018-09-15T12:43:50.328Z,2.43
2018-09-15T12:46:18.709Z,0.93
2018-09-15T12:48:47.506Z,16.90
2018-09-15T12:51:15.894Z,3.00
2018-09-15T12:53:44.374Z,2.10
2018-09-15T12:56:12.759Z,4.90
2018-09-15T12:58:41.126Z,14.33
2018-09-15T13:01:09.510Z,3.10
2018-09-15T13:03:37.866Z,8.03
2018-09-15T13:06:06.304Z,7.50
2018-09-15T13:08:34.665Z,6.77
2018-09-15T13:11:03.069Z,7.13
2018-09-15T13:13:31.474Z,2.83
2018-09-15T13:15:59.866Z,4.50
2018-09-15T13:18:28.225Z,6.00
2018-09-15T13:20:56.649Z,1.20
2018-09-15T13:23:25.030Z,1.20
2018-09-15T13:25:53.416Z,2.53
2018-09-15T13:28:21.778Z,6.40
2018-09-15T13:30:50.181Z,3.77
2018-09-15T13:33:18.549Z,4.93
2018-09-15T13:35:46.958Z,2.40
2018-09-15T13:38:15.321Z,9.83
2018-09-15T13:40:43.727Z,4.10
2018-09-15T13:43:12.088Z,5.73
2018-09-15T13:45:40.533Z,4.40
2018-09-15T13:48:08.898Z,4.70
2018-09-15T13:50:37.286Z,15.73
2018-09-15T13:53:05.822Z,21.63
2018-09-15T13:55:34.210Z,6.43
2018-09-15T13:58:02.577Z,8.17
2018-09-15T14:00:30.973Z,10.97
2018-09-15T14:02:59.342Z,6.53
2018-09-15T14:05:27.742Z,6.50
2018-09-15T14:07:56.109Z,4.40
2018-09-15T14:10:24.490Z,3.57
2018-09-15T14:12:52.857Z,3.23
2018-09-15T14:15:21.241Z,4.77
2018-09-15T14:17:49.605Z,9.70
2018-09-15T14:20:18.002Z,3.60
2018-09-15T14:22:46.407Z,2.70
2018-09-15T14:25:14.810Z,1.20
2018-09-15T14:27:43.246Z,6.83
2018-09-15T14:30:11.605Z,3.70
2018-09-15T14:32:39.986Z,9.70
2018-09-15T14:35:08.342Z,1.20
2018-09-15T14:37:36.723Z,3.33
2018-09-15T14:40:05.082Z,3.83
2018-09-15T14:42:34.039Z,2.70
2018-09-15T14:45:02.394Z,1.70
2018-09-15T14:47:30.774Z,6.57
2018-09-15T14:49:59.146Z,2.40
2018-09-15T14:52:27.553Z,3.67
2018-09-15T14:54:55.917Z,5.13
2018-09-15T14:57:24.297Z,2.83
2018-09-15T14:59:52.654Z,1.33
2018-09-15T15:02:21.038Z,2.40
2018-09-15T15:04:49.407Z,5.70
2018-09-15T15:07:17.793Z,4.03
2018-09-15T15:09:46.322Z,6.00
2018-09-15T15:12:14.732Z,2.30
2018-09-15T15:14:43.100Z,2.10
2018-09-15T15:17:11.486Z,3.00
2018-09-15T15:19:39.923Z,6.63
2018-09-15T15:22:08.267Z,3.80
2018-09-15T15:24:36.687Z,1.30
2018-09-15T15:27:05.111Z,3.67
2018-09-15T15:29:33.490Z,3.17
2018-09-15T15:32:01.884Z,7.13
2018-09-15T15:34:30.266Z,10.70
2018-09-15T15:36:58.654Z,1.97
2018-09-15T15:39:27.026Z,3.53
2018-09-15T15:41:55.485Z,6.37
2018-09-15T15:44:23.870Z,1.93
2018-09-15T15:46:52.253Z,7.90
2018-09-15T15:49:20.619Z,16.70
2018-09-15T15:51:49.010Z,5.33
2018-09-15T15:54:17.383Z,4.93
2018-09-15T15:56:45.773Z,1.57
2018-09-15T15:59:14.218Z,6.20
2018-09-15T16:01:42.552Z,4.33
2018-09-15T16:04:10.941Z,7.73
2018-09-15T16:06:39.611Z,14.13
2018-09-15T16:09:08.730Z,4.73
2018-09-15T16:11:37.954Z,3.37
2018-09-15T16:14:06.386Z,7.13
2018-09-15T16:16:34.885Z,4.40
2018-09-15T16:19:03.278Z,6.10
2018-09-15T16:21:31.690Z,19.03
2018-09-15T16:24:00.091Z,2.90
2018-09-15T16:26:28.490Z,4.37
2018-09-15T16:28:56.863Z,6.30
2018-09-15T16:31:25.219Z,3.67
2018-09-15T16:33:53.598Z,6.73
2018-09-15T16:36:21.950Z,2.40
2018-09-15T16:38:50.338Z,7.13
2018-09-15T16:41:18.698Z,3.93
2018-09-15T16:43:47.083Z,7.83
2018-09-15T16:46:15.710Z,4.40
2018-09-15T16:48:44.150Z,9.13
2018-09-15T16:51:12.509Z,4.83
2018-09-15T16:53:41.465Z,2.57
2018-09-15T16:56:09.818Z,6.20
2018-09-15T16:58:38.218Z,7.23
2018-09-15T17:01:06.729Z,4.70
2018-09-15T17:03:35.118Z,2.13
2018-09-15T17:06:03.564Z,4.17
2018-09-15T17:08:31.967Z,5.70
2018-09-15T17:11:00.487Z,15.67
2018-09-15T17:13:28.875Z,3.00
2018-09-15T17:15:57.302Z,1.40
2018-09-15T17:18:25.651Z,1.80
2018-09-15T17:20:54.001Z,4.70
2018-09-15T17:23:22.421Z,8.73
2018-09-15T17:25:50.803Z,5.07
2018-09-15T17:28:19.190Z,4.67
2018-09-15T17:30:47.550Z,3.23
2018-09-15T17:33:15.930Z,9.57
2018-09-15T17:35:44.303Z,3.10
2018-09-15T17:38:12.946Z,8.00
2018-09-15T17:40:41.302Z,4.97
2018-09-15T17:43:09.725Z,2.70
2018-09-15T17:45:38.174Z,5.27
2018-09-15T17:48:06.766Z,6.30
2018-09-15T17:50:35.213Z,2.73
2018-09-15T17:53:03.606Z,5.13
2018-09-15T17:55:32.090Z,6.63
2018-09-15T17:58:00.469Z,5.37
2018-09-15T18:00:29.695Z,1.70
2018-09-15T18:02:58.093Z,2.80
2018-09-15T18:05:26.446Z,6.60
2018-09-15T18:07:54.831Z,9.87
2018-09-15T18:10:23.194Z,2.33
2018-09-15T18:12:51.578Z,2.03
2018-09-15T18:15:19.938Z,2.80
2018-09-15T18:17:48.326Z,4.60
2018-09-15T18:20:16.686Z,3.57
2018-09-15T18:22:45.069Z,2.57
2018-09-15T18:25:13.467Z,2.97
2018-09-15T18:27:41.830Z,10.33
2018-09-15T18:30:10.234Z,5.43
2018-09-15T18:32:38.593Z,11.53
2018-09-15T18:35:06.974Z,2.60
2018-09-15T18:37:35.341Z,5.53
2018-09-15T18:40:03.722Z,5.87
2018-09-15T18:42:32.086Z,3.80
2018-09-15T18:45:00.476Z,7.77
2018-09-15T18:47:28.843Z,4.83
2018-09-15T18:49:57.239Z,2.57
2018-09-15T18:52:25.599Z,6.40
2018-09-15T18:54:54.129Z,7.30
2018-09-15T18:57:22.583Z,7.60
2018-09-15T18:59:50.980Z,7.13
2018-09-15T19:02:19.337Z,4.97
2018-09-15T19:04:47.731Z,8.83
2018-09-15T19:07:16.087Z,4.90
2018-09-15T19:09:44.477Z,3.83
2018-09-15T19:12:12.833Z,6.13
2018-09-15T19:14:41.275Z,4.83
2018-09-15T19:17:09.607Z,6.57
2018-09-15T19:19:37.997Z,4.63
2018-09-15T19:22:06.514Z,3.47
2018-09-15T19:24:35.106Z,8.37
2018-09-15T19:27:03.503Z,4.70
2018-09-15T19:29:31.898Z,4.47
2018-09-15T19:32:00.280Z,3.20
2018-09-15T19:34:28.668Z,5.93
2018-09-15T19:36:57.051Z,7.97
2018-09-15T19:39:25.451Z,6.57
2018-09-15T19:41:53.805Z,3.57
2018-09-15T19:44:22.203Z,3.97
2018-09-15T19:46:50.576Z,4.07
2018-09-15T19:49:18.974Z,5.20
2018-09-15T19:51:47.336Z,4.33
2018-09-15T19:54:15.718Z,3.30
2018-09-15T19:56:44.082Z,4.73
2018-09-15T19:59:12.528Z,5.77
2018-09-15T20:01:40.974Z,6.57
2018-09-15T20:04:09.374Z,10.00
2018-09-15T20:06:37.796Z,7.43
2018-09-15T20:09:08.239Z,3.37
2018-09-15T20:11:36.681Z,5.57
2018-09-15T20:14:05.068Z,4.00
2018-09-15T20:16:32.384Z,3.47
2018-09-15T20:18:59.743Z,8.50
2018-09-15T20:21:27.186Z,6.13
2018-09-15T20:23:55.671Z,9.57
2018-09-15T20:26:24.070Z,5.13
2018-09-15T20:28:52.626Z,6.07
2018-09-15T20:31:21.373Z,10.93
2018-09-15T20:33:49.730Z,7.13
2018-09-15T20:36:18.119Z,4.87
2018-09-15T20:38:46.498Z,5.60
2018-09-15T20:41:14.891Z,11.53
2018-09-15T20:43:43.271Z,4.60
2018-09-15T20:46:11.672Z,8.73
2018-09-15T20:48:40.035Z,4.43
2018-09-15T20:51:08.550Z,12.30
2018-09-15T20:53:36.911Z,7.53
2018-09-15T20:56:05.304Z,9.87
2018-09-15T20:58:33.692Z,10.07
2018-09-15T21:01:02.078Z,7.30
2018-09-15T21:03:32.213Z,7.43
2018-09-15T21:06:00.929Z,5.37
2018-09-15T21:08:29.462Z,3.57
2018-09-15T21:10:57.858Z,12.37
2018-09-15T21:13:26.219Z,3.53
2018-09-15T21:15:54.662Z,5.90
2018-09-15T21:18:23.030Z,9.47
2018-09-15T21:20:51.411Z,3.37
2018-09-15T21:23:19.802Z,8.43
2018-09-15T21:25:48.217Z,5.87
2018-09-15T21:28:16.569Z,8.10
2018-09-15T21:30:44.970Z,7.00
2018-09-15T21:33:13.476Z,5.63
2018-09-15T21:35:41.871Z,6.30
2018-09-15T21:38:10.229Z,5.33
2018-09-15T21:40:38.610Z,13.57
2018-09-15T21:43:06.986Z,10.27
2018-09-15T21:45:35.363Z,8.10
2018-09-15T21:48:03.841Z,8.83
2018-09-15T21:50:32.222Z,3.67
2018-09-15T21:53:00.582Z,10.20
2018-09-15T21:55:28.958Z,3.63
2018-09-15T21:57:57.320Z,12.73
2018-09-15T22:00:25.705Z,4.97
2018-09-15T22:02:54.066Z,5.03
2018-09-15T22:05:22.449Z,9.87
2018-09-15T22:07:50.803Z,2.60
2018-09-15T22:10:19.182Z,3.47
2018-09-15T22:12:49.201Z,5.37
2018-09-15T22:15:25.471Z,6.10
2018-09-15T22:17:55.251Z,12.57
2018-09-15T22:20:23.663Z,6.20
2018-09-15T22:22:52.046Z,3.67
2018-09-15T22:25:20.430Z,9.10
2018-09-15T22:27:49.207Z,11.40
2018-09-15T22:30:17.566Z,5.70
2018-09-15T22:32:45.947Z,9.07
2018-09-15T22:35:14.315Z,6.10
2018-09-15T22:37:42.697Z,6.17
2018-09-15T22:40:11.694Z,7.30
2018-09-15T22:42:40.307Z,3.57
2018-09-15T22:45:08.745Z,8.10
2018-09-15T22:47:37.126Z,9.03
2018-09-15T22:50:05.822Z,11.33
2018-09-15T22:52:34.536Z,7.77
2018-09-15T22:55:03.404Z,9.90
2018-09-15T22:57:31.946Z,4.37
2018-09-15T23:00:00.363Z,4.50
2018-09-15T23:02:28.744Z,12.67
2018-09-15T23:04:57.098Z,5.97
2018-09-15T23:07:25.506Z,5.67
2018-09-15T23:09:53.876Z,12.60
2018-09-15T23:12:22.262Z,7.93
2018-09-15T23:14:50.613Z,8.83
2018-09-15T23:17:18.993Z,3.90
2018-09-15T23:19:47.355Z,8.50
2018-09-15T23:22:15.742Z,4.87
2018-09-15T23:24:44.126Z,6.30
2018-09-15T23:27:12.497Z,3.20
2018-09-15T23:29:40.859Z,7.33
2018-09-15T23:32:09.237Z,10.70
2018-09-15T23:34:37.611Z,10.13
2018-09-15T23:37:06.181Z,8.43
2018-09-15T23:39:34.543Z,8.73
2018-09-15T23:42:02.914Z,8.43
2018-09-15T23:44:31.276Z,7.33
2018-09-15T23:46:59.653Z,6.87
2018-09-15T23:49:28.010Z,6.60
2018-09-15T23:51:56.389Z,7.30
2018-09-15T23:54:24.750Z,7.67
2018-09-15T23:56:53.137Z,3.97
2018-09-15T23:59:21.494Z,6.13
